Time;durP1;ratioP1;P1;durP2;ratioP2;P2;SDS_P1;SDS_P2;PMS_P1;PMS_P2;Temp;Humidity;BMP_temperature;BMP_pressure;BME280_temperature;BME280_humidity;BME280_pressure;Samples;Min_cycle;Max_cycle;Signal;HPM_P1;HPM_P2
2023/06/06 03:01:12;;;;;;;14.63;7.90;;;10.50;99.90;;;;;;5606454;23;20224;-74
2023/06/06 03:03:38;;;;;;;15.48;8.25;;;10.50;99.90;;;;;;4958775;28;20043;-76
2023/06/06 03:06:06;;;;;;;20.77;8.63;;;10.40;99.90;;;;;;4975686;28;20509;-76
2023/06/06 03:08:33;;;;;;;15.73;8.82;;;10.50;99.90;;;;;;4975363;28;20602;-75
2023/06/06 03:10:59;;;;;;;17.38;9.48;;;10.50;99.90;;;;;;4974841;28;20487;-76
2023/06/06 03:13:25;;;;;;;16.58;8.48;;;10.40;99.90;;;;;;4974616;28;20039;-75
2023/06/06 03:15:50;;;;;;;17.63;9.10;;;10.40;99.90;;;;;;4974860;28;20442;-75
2023/06/06 03:18:20;;;;;;;17.80;8.93;;;10.40;99.90;;;;;;4974396;28;20463;-75
2023/06/06 03:20:51;;;;;;;17.88;9.07;;;10.40;99.90;;;;;;4974440;28;20047;-75
2023/06/06 03:23:17;;;;;;;17.85;9.55;;;10.40;99.90;;;;;;4975857;28;20043;-76
2023/06/06 03:25:44;;;;;;;18.42;8.95;;;10.40;99.90;;;;;;4974211;28;20118;-75
2023/06/06 03:28:13;;;;;;;17.25;8.43;;;10.40;99.90;;;;;;4975688;28;20042;-74
2023/06/06 03:30:38;;;;;;;21.40;10.40;;;10.40;99.90;;;;;;4974299;28;20130;-74
2023/06/06 03:33:07;;;;;;;19.27;9.30;;;10.30;99.90;;;;;;4974566;28;20509;-75
2023/06/06 03:35:34;;;;;;;16.08;8.60;;;10.30;99.90;;;;;;4974260;28;20043;-77
2023/06/06 03:38:01;;;;;;;16.08;8.88;;;10.40;99.90;;;;;;4974606;28;20044;-75
2023/06/06 03:40:26;;;;;;;18.85;8.82;;;10.40;99.90;;;;;;4975262;28;20038;-76
2023/06/06 03:42:53;;;;;;;18.70;10.45;;;10.40;99.90;;;;;;4973905;28;20089;-76
2023/06/06 03:45:20;;;;;;;16.38;8.70;;;10.40;99.90;;;;;;4956659;28;20495;-74
2023/06/06 03:47:46;;;;;;;21.75;9.15;;;10.40;99.90;;;;;;4973230;28;20315;-76
2023/06/06 03:50:12;;;;;;;18.40;10.18;;;10.40;99.90;;;;;;4972588;28;20051;-75
2023/06/06 03:52:41;;;;;;;17.85;8.63;;;10.40;99.90;;;;;;4974136;28;20353;-76
2023/06/06 03:55:07;;;;;;;19.88;9.00;;;10.40;99.90;;;;;;4973983;28;20042;-75
2023/06/06 03:57:34;;;;;;;21.45;8.88;;;10.40;99.90;;;;;;4974104;28;20043;-75
2023/06/06 04:00:00;;;;;;;16.35;8.57;;;10.40;99.90;;;;;;4974501;28;20486;-75
2023/06/06 04:02:27;;;;;;;18.08;8.82;;;10.40;99.90;;;;;;4975145;28;20466;-76
2023/06/06 04:04:54;;;;;;;22.40;9.85;;;10.40;99.90;;;;;;4975059;28;20042;-75
2023/06/06 04:07:20;;;;;;;15.43;8.75;;;10.40;99.90;;;;;;4973870;28;20372;-75
2023/06/06 04:09:45;;;;;;;18.02;8.80;;;10.40;99.90;;;;;;4973957;28;20098;-77
2023/06/06 04:12:11;;;;;;;21.63;9.45;;;10.40;99.90;;;;;;4973735;28;20079;-75
2023/06/06 04:14:37;;;;;;;17.08;8.55;;;10.50;99.90;;;;;;4974117;28;20038;-75
2023/06/06 04:17:03;;;;;;;17.77;9.27;;;10.50;99.90;;;;;;4972126;28;20105;-73
2023/06/06 04:19:28;;;;;;;15.88;8.13;;;10.50;99.90;;;;;;4972108;28;20428;-76
2023/06/06 04:21:55;;;;;;;20.17;9.45;;;10.50;99.90;;;;;;4973961;28;20039;-74
2023/06/06 04:24:21;;;;;;;15.35;8.52;;;10.50;99.90;;;;;;4975107;28;20038;-74
2023/06/06 04:26:46;;;;;;;18.95;9.15;;;10.60;99.90;;;;;;4973566;28;20113;-74
2023/06/06 04:29:13;;;;;;;22.50;8.88;;;10.60;99.90;;;;;;4973478;28;20105;-75
2023/06/06 04:31:40;;;;;;;17.88;8.80;;;10.70;99.90;;;;;;4974763;28;20494;-75
2023/06/06 04:34:09;;;;;;;21.02;8.98;;;10.70;99.90;;;;;;4973791;28;20054;-75
2023/06/06 04:36:38;;;;;;;18.17;8.75;;;10.70;99.90;;;;;;4974906;28;20035;-74
2023/06/06 04:39:07;;;;;;;15.50;8.88;;;10.80;99.90;;;;;;4973401;28;20471;-76
2023/06/06 04:41:34;;;;;;;17.33;8.68;;;10.80;99.90;;;;;;4973345;28;20046;-75
2023/06/06 04:44:04;;;;;;;18.70;8.82;;;10.80;99.90;;;;;;4973559;28;20490;-75
2023/06/06 04:46:30;;;;;;;18.50;9.05;;;10.90;99.90;;;;;;4973377;28;20041;-75
2023/06/06 04:48:56;;;;;;;15.25;8.52;;;10.90;99.90;;;;;;4973449;28;20042;-77
2023/06/06 04:51:33;;;;;;;20.27;9.57;;;10.90;99.90;;;;;;4973674;28;20117;-75
2023/06/06 04:54:06;;;;;;;18.52;9.32;;;11.00;99.90;;;;;;4972095;28;20494;-77
2023/06/06 04:56:32;;;;;;;15.60;8.43;;;11.00;99.90;;;;;;4973437;28;20591;-74
2023/06/06 04:59:05;;;;;;;18.42;9.40;;;11.10;99.90;;;;;;4973380;28;20150;-75
2023/06/06 05:01:41;;;;;;;19.90;8.43;;;11.10;99.90;;;;;;4973295;28;20062;-74
2023/06/06 05:04:07;;;;;;;19.63;9.10;;;11.10;99.90;;;;;;4974528;28;20043;-74
2023/06/06 05:06:34;;;;;;;17.50;8.98;;;11.10;99.90;;;;;;4974676;28;20039;-74
2023/06/06 05:09:07;;;;;;;18.73;9.48;;;11.20;99.90;;;;;;4974321;28;20038;-74
2023/06/06 05:11:34;;;;;;;17.20;9.05;;;11.20;99.90;;;;;;4971951;28;20062;-75
2023/06/06 05:14:01;;;;;;;16.05;8.73;;;11.30;99.90;;;;;;4971391;28;20066;-74
2023/06/06 05:16:27;;;;;;;18.58;9.32;;;11.30;99.90;;;;;;4972516;28;20078;-75
2023/06/06 05:18:53;;;;;;;16.48;8.35;;;11.40;99.90;;;;;;4956856;28;20046;-74
2023/06/06 05:21:19;;;;;;;18.83;9.30;;;11.40;99.90;;;;;;4974071;28;20035;-75
2023/06/06 05:23:46;;;;;;;17.48;8.73;;;11.40;99.90;;;;;;4974237;28;20039;-74
2023/06/06 05:26:11;;;;;;;19.20;8.95;;;11.50;99.90;;;;;;4974829;28;20374;-74
2023/06/06 05:28:38;;;;;;;19.08;9.23;;;11.50;99.90;;;;;;4972940;28;20039;-75
2023/06/06 05:31:07;;;;;;;18.63;8.43;;;11.50;99.90;;;;;;4976162;28;20097;-74
2023/06/06 05:33:33;;;;;;;17.10;8.05;;;11.60;99.90;;;;;;4977919;28;20039;-74
2023/06/06 05:36:00;;;;;;;19.38;9.07;;;11.60;99.90;;;;;;4978211;28;20045;-76
2023/06/06 05:38:26;;;;;;;19.55;8.10;;;11.60;99.90;;;;;;4977946;28;20038;-74
2023/06/06 05:40:52;;;;;;;19.88;8.10;;;11.70;99.90;;;;;;4959907;28;20264;-75
2023/06/06 05:43:18;;;;;;;18.33;8.65;;;11.70;99.90;;;;;;4977359;28;20065;-73
2023/06/06 05:45:43;;;;;;;15.98;8.02;;;11.80;99.90;;;;;;4976700;28;20388;-75
2023/06/06 05:48:09;;;;;;;15.40;8.02;;;11.80;99.90;;;;;;4975897;28;20054;-75
2023/06/06 05:50:35;;;;;;;15.82;7.88;;;11.90;99.90;;;;;;4978017;28;20507;-75
2023/06/06 05:53:02;;;;;;;18.38;8.80;;;11.90;99.90;;;;;;4977816;28;20038;-75
2023/06/06 05:55:31;;;;;;;19.50;8.15;;;11.90;99.90;;;;;;4976445;28;20078;-75
2023/06/06 05:57:57;;;;;;;20.08;8.13;;;12.00;99.90;;;;;;4977712;28;20482;-75
2023/06/06 06:00:24;;;;;;;17.75;7.47;;;12.00;99.90;;;;;;4976114;28;20047;-76
2023/06/06 06:02:55;;;;;;;19.15;8.25;;;12.10;99.90;;;;;;4976365;28;20039;-75
2023/06/06 06:05:22;;;;;;;16.13;7.68;;;12.10;99.90;;;;;;4976500;28;20097;-75
2023/06/06 06:07:47;;;;;;;18.83;8.23;;;12.10;99.90;;;;;;4976605;28;20478;-74
2023/06/06 06:10:16;;;;;;;14.18;7.05;;;12.20;99.90;;;;;;4976885;28;20094;-74
2023/06/06 06:12:42;;;;;;;18.27;7.75;;;12.20;99.90;;;;;;4975621;28;20406;-76
2023/06/06 06:15:09;;;;;;;17.23;7.78;;;12.30;99.90;;;;;;4975896;28;20058;-74
2023/06/06 06:17:35;;;;;;;16.83;8.45;;;12.30;99.90;;;;;;4977364;28;20043;-75
2023/06/06 06:20:08;;;;;;;13.18;6.88;;;12.30;99.90;;;;;;4975747;28;20045;-73
2023/06/06 06:22:37;;;;;;;14.98;7.40;;;12.40;99.90;;;;;;4975725;28;20463;-74
2023/06/06 06:25:05;;;;;;;21.85;8.25;;;12.40;99.90;;;;;;4975494;28;20453;-75
2023/06/06 06:27:31;;;;;;;16.50;7.07;;;12.50;99.90;;;;;;4977605;28;20058;-74
2023/06/06 06:29:57;;;;;;;16.52;7.20;;;12.50;99.90;;;;;;4977676;28;20043;-74
2023/06/06 06:32:23;;;;;;;15.85;7.40;;;12.50;99.90;;;;;;4960210;28;20566;-74
2023/06/06 06:34:49;;;;;;;17.73;7.30;;;12.60;99.90;;;;;;4977618;28;20395;-75
2023/06/06 06:37:16;;;;;;;22.08;7.82;;;12.70;99.90;;;;;;4977370;28;20035;-75
2023/06/06 06:39:42;;;;;;;15.45;6.90;;;12.70;99.90;;;;;;4977395;28;20043;-75
2023/06/06 06:42:08;;;;;;;14.60;7.32;;;12.70;99.90;;;;;;4977115;28;20387;-75
2023/06/06 06:44:33;;;;;;;15.23;7.45;;;12.80;99.90;;;;;;4977540;28;20137;-75
2023/06/06 06:46:59;;;;;;;19.63;6.90;;;12.80;99.90;;;;;;4976350;28;20042;-74
2023/06/06 06:49:25;;;;;;;16.00;7.40;;;12.80;99.90;;;;;;4977756;28;20050;-75
2023/06/06 06:51:52;;;;;;;17.98;7.75;;;12.90;99.90;;;;;;4977628;28;20049;-74
2023/06/06 06:54:21;;;;;;;18.77;7.13;;;12.90;99.90;;;;;;4977087;28;20120;-75
2023/06/06 06:56:48;;;;;;;15.15;7.32;;;13.00;99.90;;;;;;4975723;28;20055;-75
2023/06/06 06:59:14;;;;;;;19.27;7.53;;;13.00;99.90;;;;;;4975687;28;20070;-75
2023/06/06 07:01:40;;;;;;;18.17;7.55;;;13.10;99.90;;;;;;4976281;28;20066;-74
2023/06/06 07:04:08;;;;;;;14.70;6.95;;;13.10;99.90;;;;;;4975154;28;20483;-76
2023/06/06 07:06:36;;;;;;;14.75;6.80;;;13.20;99.90;;;;;;4975409;28;20155;-75
2023/06/06 07:09:04;;;;;;;17.27;7.05;;;13.30;99.90;;;;;;4958145;28;20074;-76
2023/06/06 07:11:30;;;;;;;12.27;6.88;;;13.30;99.90;;;;;;4976697;28;20093;-75
2023/06/06 07:13:56;;;;;;;19.67;7.50;;;13.40;99.90;;;;;;4976310;28;20042;-75
2023/06/06 07:16:23;;;;;;;13.23;6.93;;;13.40;99.90;;;;;;4976763;28;20074;-76
2023/06/06 07:18:51;;;;;;;13.73;6.65;;;13.50;99.90;;;;;;4975758;28;20047;-75
2023/06/06 07:21:19;;;;;;;14.48;7.75;;;13.60;99.90;;;;;;4958902;28;20050;-75
2023/06/06 07:23:47;;;;;;;16.38;7.50;;;13.70;99.90;;;;;;4974902;28;20049;-73
2023/06/06 07:26:16;;;;;;;13.50;7.00;;;13.80;99.90;;;;;;4976422;28;20058;-75
2023/06/06 07:28:42;;;;;;;15.40;7.32;;;13.80;99.90;;;;;;4975972;28;20050;-75
2023/06/06 07:31:08;;;;;;;15.55;6.93;;;13.90;99.90;;;;;;4974519;28;20047;-75
2023/06/06 07:33:34;;;;;;;16.70;7.75;;;14.00;99.90;;;;;;4974665;28;20058;-74
2023/06/06 07:35:59;;;;;;;13.95;6.75;;;14.00;99.90;;;;;;4976277;28;20055;-74
2023/06/06 07:38:26;;;;;;;13.82;6.95;;;14.10;99.90;;;;;;4976186;28;20503;-76
2023/06/06 07:40:51;;;;;;;16.10;6.05;;;14.20;99.90;;;;;;4976096;28;20047;-75
2023/06/06 07:43:17;;;;;;;11.75;6.47;;;14.30;99.90;;;;;;4976297;28;20138;-75
2023/06/06 07:45:42;;;;;;;11.07;6.30;;;14.30;99.90;;;;;;4974278;28;20047;-74
2023/06/06 07:48:08;;;;;;;10.45;5.72;;;14.40;99.90;;;;;;4974287;28;20066;-74
2023/06/06 07:50:35;;;;;;;18.40;6.38;;;14.40;99.90;;;;;;4974022;28;20066;-75
2023/06/06 07:53:01;;;;;;;11.48;5.80;;;14.50;99.90;;;;;;4973788;28;20061;-75
2023/06/06 07:55:26;;;;;;;15.00;6.07;;;14.60;99.90;;;;;;4975874;28;20510;-74
2023/06/06 07:57:53;;;;;;;11.27;6.07;;;14.70;99.90;;;;;;4975885;28;20047;-75
2023/06/06 08:00:19;;;;;;;13.98;5.45;;;14.80;99.90;;;;;;4975378;28;20372;-74
2023/06/06 08:02:45;;;;;;;10.60;5.82;;;14.80;99.90;;;;;;4975666;28;20042;-75
2023/06/06 08:05:11;;;;;;;13.98;5.43;;;14.90;99.90;;;;;;4975488;28;20098;-74
2023/06/06 08:07:38;;;;;;;12.30;5.43;;;15.00;99.90;;;;;;4975422;28;20038;-74
2023/06/06 08:10:06;;;;;;;11.05;5.22;;;15.10;99.90;;;;;;4975702;28;20066;-76
2023/06/06 08:12:32;;;;;;;14.55;6.15;;;15.20;99.90;;;;;;4974055;28;20390;-74
2023/06/06 08:14:57;;;;;;;15.07;5.95;;;15.20;99.90;;;;;;4975199;28;20049;-75
2023/06/06 08:17:23;;;;;;;13.55;5.70;;;15.30;99.90;;;;;;4975331;28;20075;-74
2023/06/06 08:19:49;;;;;;;11.98;5.13;;;15.40;99.90;;;;;;4975307;28;20082;-75
2023/06/06 08:22:15;;;;;;;13.80;5.50;;;15.40;99.90;;;;;;4975082;28;20517;-74
2023/06/06 08:24:41;;;;;;;11.70;5.00;;;15.50;99.90;;;;;;4974876;28;20410;-75
2023/06/06 08:27:07;;;;;;;9.68;4.85;;;15.60;99.90;;;;;;4973557;28;20075;-74
2023/06/06 08:29:33;;;;;;;11.20;4.97;;;15.70;99.90;;;;;;4974901;28;20120;-74
2023/06/06 08:32:01;;;;;;;10.68;5.13;;;15.80;99.90;;;;;;4973753;28;20482;-74
2023/06/06 08:34:28;;;;;;;13.77;5.43;;;15.80;99.90;;;;;;4973551;28;20554;-74
2023/06/06 08:36:54;;;;;;;12.00;4.90;;;15.90;99.90;;;;;;4974831;28;20070;-75
2023/06/06 08:39:21;;;;;;;12.75;4.85;;;16.00;99.90;;;;;;4974905;28;20042;-75
2023/06/06 08:41:51;;;;;;;10.77;4.90;;;16.10;99.90;;;;;;4974711;28;20118;-75
2023/06/06 08:44:21;;;;;;;10.32;4.53;;;16.30;99.90;;;;;;4974780;28;20174;-73
2023/06/06 08:46:55;;;;;;;8.23;4.80;;;16.40;99.90;;;;;;4975582;28;20038;-74
2023/06/06 08:49:21;;;;;;;10.82;5.25;;;16.50;99.90;;;;;;4957774;28;20042;-75
2023/06/06 08:51:51;;;;;;;9.65;5.13;;;16.60;99.90;;;;;;4957214;28;20113;-74
2023/06/06 08:54:20;;;;;;;11.77;4.72;;;16.70;99.90;;;;;;4974711;28;20043;-75
2023/06/06 08:56:47;;;;;;;13.48;5.40;;;16.80;99.90;;;;;;4974839;28;20039;-74
2023/06/06 08:59:14;;;;;;;12.93;5.18;;;16.90;99.90;;;;;;4974860;28;20074;-75
2023/06/06 09:01:40;;;;;;;10.13;4.60;;;17.00;99.90;;;;;;4973156;28;20042;-75
2023/06/06 09:04:07;;;;;;;10.35;4.50;;;17.10;99.90;;;;;;4975113;28;20077;-74
2023/06/06 09:06:43;;;;;;;11.30;5.05;;;17.20;99.90;;;;;;4977286;28;20049;-76
2023/06/06 09:09:10;;;;;;;11.45;4.93;;;17.40;99.90;;;;;;4978886;28;20046;-74
2023/06/06 09:11:36;;;;;;;10.60;5.15;;;17.50;99.90;;;;;;4978712;28;20394;-75
2023/06/06 09:14:04;;;;;;;8.57;4.75;;;17.60;99.90;;;;;;4977377;28;20533;-75
2023/06/06 09:16:30;;;;;;;11.20;5.20;;;17.70;99.90;;;;;;4978466;28;20043;-75
2023/06/06 09:18:57;;;;;;;13.77;5.55;;;17.70;99.90;;;;;;4979090;28;20035;-75
2023/06/06 09:21:28;;;;;;;13.10;4.97;;;17.80;99.90;;;;;;4977666;28;20126;-75
2023/06/06 09:23:54;;;;;;;11.05;4.88;;;17.80;99.90;;;;;;4978992;28;20034;-75
2023/06/06 09:26:21;;;;;;;10.05;5.30;;;18.00;99.90;;;;;;4977888;28;20058;-76
2023/06/06 09:28:47;;;;;;;12.43;5.72;;;18.10;99.90;;;;;;4977431;28;20074;-75
2023/06/06 09:31:37;;;;;;;10.32;5.05;;;18.10;99.90;;;;;;4977125;28;20585;-75
2023/06/06 09:34:03;;;;;;;11.43;5.75;;;18.20;99.90;;;;;;4978566;28;20089;-75
2023/06/06 09:36:29;;;;;;;10.15;5.50;;;18.30;99.90;;;;;;4977434;28;20390;-75
2023/06/06 09:39:22;;;;;;;10.80;4.97;;;18.40;99.90;;;;;;4978402;28;20038;-75
2023/06/06 09:41:48;;;;;;;12.70;5.47;;;18.50;99.90;;;;;;4976608;28;20059;-75
2023/06/06 09:44:21;;;;;;;15.10;5.57;;;18.60;99.90;;;;;;4977336;28;20105;-74
2023/06/06 09:47:01;;;;;;;8.45;5.35;;;18.70;99.90;;;;;;4978046;28;20035;-75
2023/06/06 09:49:37;;;;;;;11.77;6.25;;;18.90;99.90;;;;;;4977004;28;20506;-75
2023/06/06 09:52:04;;;;;;;11.95;5.88;;;19.10;99.90;;;;;;4977954;28;20042;-75
2023/06/06 09:54:30;;;;;;;12.25;6.45;;;19.10;99.90;;;;;;4977146;28;20054;-76
2023/06/06 09:56:57;;;;;;;15.80;6.07;;;19.30;99.90;;;;;;4978454;28;20038;-75
2023/06/06 09:59:26;;;;;;;16.02;5.50;;;19.40;99.90;;;;;;4978190;28;20046;-75
2023/06/06 10:02:03;;;;;;;11.07;5.65;;;19.50;99.90;;;;;;4977601;28;20042;-75
2023/06/06 10:04:30;;;;;;;9.40;5.05;;;19.60;99.90;;;;;;4978189;28;20039;-74
2023/06/06 10:06:57;;;;;;;10.55;4.80;;;19.80;99.90;;;;;;4976385;28;20487;-75
2023/06/06 10:09:22;;;;;;;9.30;4.55;;;19.70;99.90;;;;;;4976520;28;20047;-75
2023/06/06 10:11:49;;;;;;;11.15;5.45;;;19.80;99.90;;;;;;4976425;28;20043;-75
2023/06/06 10:14:16;;;;;;;12.15;4.82;;;19.80;99.90;;;;;;4976313;28;20046;-74
2023/06/06 10:16:41;;;;;;;14.27;5.63;;;19.80;99.90;;;;;;4976587;28;20046;-75
2023/06/06 10:19:11;;;;;;;10.93;4.97;;;19.80;99.90;;;;;;4976262;28;20039;-75
2023/06/06 10:21:37;;;;;;;11.15;5.20;;;19.90;99.90;;;;;;4977469;28;20042;-75
2023/06/06 10:24:03;;;;;;;10.90;5.60;;;19.90;99.90;;;;;;4976520;28;20066;-74
2023/06/06 10:26:52;;;;;;;10.88;5.30;;;20.00;99.90;;;;;;4977399;28;20065;-75
2023/06/06 10:29:37;;;;;;;11.57;5.30;;;20.20;99.90;;;;;;4977427;28;20134;-74
2023/06/06 10:32:14;;;;;;;12.85;5.63;;;20.30;99.90;;;;;;4977872;28;20048;-75
2023/06/06 10:34:43;;;;;;;9.40;5.53;;;20.50;99.90;;;;;;4977268;28;20118;-74
2023/06/06 10:37:20;;;;;;;11.45;5.80;;;20.60;99.90;;;;;;4977220;28;20124;-75
2023/06/06 10:39:47;;;;;;;11.27;5.75;;;20.70;99.90;;;;;;4976114;28;20058;-75
2023/06/06 10:42:13;;;;;;;15.07;6.43;;;20.80;99.90;;;;;;4977094;28;20068;-75
2023/06/06 10:44:45;;;;;;;11.35;5.57;;;20.80;99.90;;;;;;4977097;28;20125;-75
2023/06/06 10:47:27;;;;;;;11.23;5.55;;;20.80;99.90;;;;;;4975761;28;20398;-76
2023/06/06 10:50:11;;;;;;;13.27;5.13;;;20.90;99.90;;;;;;4977300;28;20042;-75
2023/06/06 10:52:48;;;;;;;13.07;5.95;;;21.00;99.90;;;;;;4977083;28;20066;-76
2023/06/06 10:55:20;;;;;;;13.18;5.40;;;21.10;99.90;;;;;;4959744;28;20124;-76
2023/06/06 10:58:03;;;;;;;10.05;5.68;;;21.20;99.90;;;;;;4975776;28;20133;-74
2023/06/06 11:00:55;;;;;;;10.85;6.00;;;21.20;99.90;;;;;;4976456;28;20422;-75
2023/06/06 11:03:38;;;;;;;16.23;5.35;;;21.20;99.90;;;;;;4977032;28;20104;-75
2023/06/06 11:06:11;;;;;;;13.75;4.90;;;21.30;99.90;;;;;;4976813;28;20364;-75
2023/06/06 11:08:42;;;;;;;12.32;5.15;;;21.40;99.90;;;;;;4976410;28;20078;-75
2023/06/06 11:11:27;;;;;;;10.73;5.25;;;21.50;99.90;;;;;;4976497;28;20057;-75
2023/06/06 11:14:07;;;;;;;10.27;5.07;;;21.60;99.90;;;;;;4959188;28;20241;-75
2023/06/06 11:16:39;;;;;;;10.48;4.95;;;21.70;99.90;;;;;;4975243;28;20050;-75
2023/06/06 11:19:09;;;;;;;14.35;5.20;;;21.80;99.90;;;;;;4975249;28;20050;-76
2023/06/06 11:21:38;;;;;;;7.85;4.68;;;21.70;99.90;;;;;;4975846;28;20172;-75
2023/06/06 11:24:08;;;;;;;9.88;5.18;;;21.90;99.90;;;;;;4976504;28;20035;-76
2023/06/06 11:26:35;;;;;;;10.52;4.75;;;22.00;99.90;;;;;;4975048;28;20077;-75
2023/06/06 11:29:02;;;;;;;9.48;5.13;;;22.10;99.90;;;;;;4973940;28;20034;-75
2023/06/06 11:31:28;;;;;;;7.93;5.32;;;22.20;99.90;;;;;;4976103;28;20178;-75
2023/06/06 11:34:06;;;;;;;8.10;5.38;;;22.20;99.90;;;;;;4976561;28;20137;-75
2023/06/06 11:36:33;;;;;;;12.60;6.10;;;22.20;99.90;;;;;;4975500;28;20367;-75
2023/06/06 11:39:00;;;;;;;15.63;5.65;;;22.20;99.90;;;;;;4975213;28;20423;-76
2023/06/06 11:41:29;;;;;;;12.13;5.95;;;22.30;99.90;;;;;;4974823;28;20490;-76
2023/06/06 11:43:55;;;;;;;10.93;5.75;;;22.30;99.90;;;;;;4976485;28;20045;-76
2023/06/06 11:46:21;;;;;;;12.10;5.88;;;22.40;99.90;;;;;;4974925;28;20039;-75
2023/06/06 11:48:54;;;;;;;12.73;6.32;;;22.40;99.90;;;;;;4975393;28;20097;-76
2023/06/06 11:51:20;;;;;;;9.35;5.78;;;22.40;99.90;;;;;;4974946;28;20051;-76
2023/06/06 11:53:46;;;;;;;9.65;6.25;;;22.40;99.90;;;;;;4976040;28;20049;-75
2023/06/06 11:56:16;;;;;;;11.32;6.53;;;22.50;99.90;;;;;;4976137;28;20077;-76
2023/06/06 11:58:42;;;;;;;16.63;6.03;;;22.60;99.90;;;;;;4974917;28;20047;-76
2023/06/06 12:01:11;;;;;;;11.07;5.97;;;22.60;99.90;;;;;;4975923;28;20090;-76
2023/06/06 12:03:38;;;;;;;9.07;5.82;;;22.70;99.90;;;;;;4975277;28;20043;-75
2023/06/06 12:06:05;;;;;;;11.52;6.20;;;22.70;99.90;;;;;;4958715;28;20121;-75
2023/06/06 12:08:36;;;;;;;12.95;5.53;;;22.60;99.90;;;;;;4974786;28;20046;-77
2023/06/06 12:11:26;;;;;;;9.73;5.78;;;22.60;99.90;;;;;;4975702;28;20042;-75
2023/06/06 12:13:52;;;;;;;13.43;6.22;;;22.60;99.90;;;;;;4975086;28;20050;-75
2023/06/06 12:16:23;;;;;;;13.10;5.88;;;22.70;99.90;;;;;;4974622;28;20050;-76
2023/06/06 12:18:50;;;;;;;16.35;6.00;;;22.80;99.90;;;;;;4958532;28;20047;-76
2023/06/06 12:21:17;;;;;;;12.68;5.20;;;22.70;99.90;;;;;;4974068;28;20557;-76
2023/06/06 12:23:44;;;;;;;10.52;5.35;;;22.80;99.90;;;;;;4975624;28;20473;-75
2023/06/06 12:26:15;;;;;;;13.55;5.70;;;22.80;99.90;;;;;;4974637;28;20039;-76
2023/06/06 12:28:58;;;;;;;12.00;6.30;;;22.80;99.90;;;;;;4974802;28;20038;-77
2023/06/06 12:31:34;;;;;;;14.45;6.03;;;22.90;99.90;;;;;;4974569;28;20050;-74
2023/06/06 12:34:00;;;;;;;11.77;6.13;;;22.90;99.90;;;;;;4975865;28;20414;-76
2023/06/06 12:36:26;;;;;;;13.95;6.43;;;23.00;99.90;;;;;;4975945;28;20069;-77
2023/06/06 12:39:00;;;;;;;13.75;6.07;;;23.10;99.90;;;;;;4973786;28;20089;-76
2023/06/06 12:41:39;;;;;;;12.25;6.35;;;23.20;99.90;;;;;;4973690;28;20053;-77
2023/06/06 12:44:11;;;;;;;10.88;6.00;;;23.10;99.90;;;;;;4974029;28;20043;-76
2023/06/06 12:46:40;;;;;;;11.77;5.38;;;23.10;99.90;;;;;;4975762;28;20035;-76
2023/06/06 12:49:06;;;;;;;12.13;5.50;;;23.10;99.90;;;;;;4973975;28;20054;-76
2023/06/06 12:51:34;;;;;;;12.45;5.63;;;23.10;99.90;;;;;;4975371;28;20069;-76
2023/06/06 12:54:00;;;;;;;9.68;5.50;;;23.10;99.90;;;;;;4974564;28;20397;-76
2023/06/06 12:56:27;;;;;;;11.70;5.88;;;23.10;99.90;;;;;;4975426;28;20041;-76
2023/06/06 12:58:53;;;;;;;11.20;4.80;;;23.10;99.90;;;;;;4975543;28;20605;-76
2023/06/06 13:01:18;;;;;;;10.30;5.05;;;23.20;99.90;;;;;;4974223;28;20082;-76
2023/06/06 13:03:45;;;;;;;12.60;5.40;;;23.20;99.90;;;;;;4974128;28;20049;-75
2023/06/06 13:06:13;;;;;;;9.10;5.38;;;23.30;99.90;;;;;;4974615;28;20043;-76
2023/06/06 13:08:39;;;;;;;10.27;5.50;;;23.30;99.90;;;;;;4976424;28;20134;-76
2023/06/06 13:11:06;;;;;;;14.60;5.40;;;23.30;99.90;;;;;;4974298;28;20498;-76
2023/06/06 13:13:31;;;;;;;11.65;5.43;;;23.30;99.90;;;;;;4958406;28;20442;-76
2023/06/06 13:15:57;;;;;;;13.77;5.72;;;23.30;99.90;;;;;;4974878;28;20050;-75
2023/06/06 13:18:23;;;;;;;11.65;4.88;;;23.30;99.90;;;;;;4974848;28;20061;-76
2023/06/06 13:20:51;;;;;;;14.35;5.43;;;23.40;99.90;;;;;;4975538;28;20039;-75
2023/06/06 13:23:16;;;;;;;12.35;5.80;;;23.40;99.90;;;;;;4975650;28;20042;-75
2023/06/06 13:25:42;;;;;;;11.48;5.50;;;23.40;99.90;;;;;;4958482;28;20089;-75
2023/06/06 13:28:08;;;;;;;10.10;6.05;;;23.40;99.90;;;;;;4974223;28;20121;-75
2023/06/06 13:30:33;;;;;;;9.73;5.30;;;23.50;99.90;;;;;;4975259;28;20190;-75
2023/06/06 13:32:59;;;;;;;10.55;5.22;;;23.60;99.90;;;;;;4974628;28;20049;-75
2023/06/06 13:35:25;;;;;;;14.60;5.70;;;23.50;99.90;;;;;;4973684;28;20439;-75
2023/06/06 13:37:51;;;;;;;10.88;5.28;;;23.50;99.90;;;;;;4975912;28;20078;-75
2023/06/06 13:40:18;;;;;;;11.63;5.30;;;23.60;99.90;;;;;;4975578;28;20070;-76
2023/06/06 13:42:45;;;;;;;14.25;5.30;;;23.60;99.90;;;;;;4976311;28;20039;-75
2023/06/06 13:45:11;;;;;;;11.32;5.30;;;23.70;99.90;;;;;;4975854;28;20046;-77
2023/06/06 13:47:37;;;;;;;18.05;5.95;;;23.50;99.90;;;;;;4974330;28;20407;-75
2023/06/06 13:50:03;;;;;;;10.32;5.10;;;23.60;99.90;;;;;;4974158;28;20050;-74
2023/06/06 13:52:29;;;;;;;9.63;4.85;;;23.50;99.90;;;;;;4960803;28;20042;-76
2023/06/06 13:54:54;;;;;;;10.50;4.90;;;23.50;99.90;;;;;;4979096;28;20039;-75
2023/06/06 13:57:20;;;;;;;10.82;4.90;;;23.50;99.90;;;;;;4978855;28;20402;-76
2023/06/06 13:59:46;;;;;;;8.38;4.45;;;23.60;99.90;;;;;;4977829;28;20391;-76
2023/06/06 14:02:12;;;;;;;13.88;4.95;;;23.60;99.90;;;;;;4978474;28;20043;-75
2023/06/06 14:04:39;;;;;;;11.15;5.00;;;23.70;99.90;;;;;;4979999;28;20038;-75
2023/06/06 14:07:05;;;;;;;9.57;4.55;;;23.70;99.90;;;;;;4979587;28;20042;-75
2023/06/06 14:09:31;;;;;;;9.73;4.63;;;23.70;99.90;;;;;;4978700;28;20458;-75
2023/06/06 14:11:58;;;;;;;12.45;5.22;;;23.70;99.90;;;;;;4977273;28;20078;-76
2023/06/06 14:14:24;;;;;;;9.73;4.40;;;23.70;99.90;;;;;;4978460;28;20078;-77
2023/06/06 14:16:50;;;;;;;11.68;5.15;;;23.70;99.90;;;;;;4978218;28;20035;-75
2023/06/06 14:19:35;;;;;;;13.05;5.63;;;23.60;99.90;;;;;;4978105;28;20117;-76
2023/06/06 14:24:37;;;;;;;9.80;4.53;;;23.50;99.90;;;;;;4978722;28;20121;-76
2023/06/06 14:27:03;;;;;;;9.70;4.00;;;23.50;99.90;;;;;;4979021;28;20475;-76
2023/06/06 14:29:29;;;;;;;12.63;4.65;;;23.50;99.90;;;;;;4976557;28;20046;-76
2023/06/06 14:31:54;;;;;;;13.85;4.95;;;23.60;99.90;;;;;;4976417;28;20042;-76
2023/06/06 14:34:20;;;;;;;11.30;4.22;;;23.50;99.90;;;;;;4977335;28;20486;-76
2023/06/06 14:36:46;;;;;;;13.48;4.80;;;23.50;99.90;;;;;;4977362;28;20039;-76
2023/06/06 14:39:12;;;;;;;10.65;4.10;;;23.60;99.90;;;;;;4978626;28;20039;-77
2023/06/06 14:41:37;;;;;;;9.73;4.05;;;23.60;99.90;;;;;;4977431;28;20043;-76
2023/06/06 14:44:03;;;;;;;11.02;4.40;;;23.60;99.90;;;;;;4977192;28;20125;-77
2023/06/06 14:46:29;;;;;;;10.88;4.38;;;23.50;99.90;;;;;;4978010;28;20465;-76
2023/06/06 14:48:54;;;;;;;8.57;4.13;;;23.40;99.90;;;;;;4977256;28;20039;-76
2023/06/06 14:51:20;;;;;;;8.73;4.72;;;23.40;99.90;;;;;;4975939;28;20118;-77
2023/06/06 14:53:46;;;;;;;10.27;4.70;;;23.40;99.90;;;;;;4976739;28;20082;-76
2023/06/06 14:56:11;;;;;;;12.35;4.85;;;23.40;99.90;;;;;;4976051;28;20050;-76
2023/06/06 14:58:42;;;;;;;10.50;4.93;;;23.40;99.90;;;;;;4977697;28;20038;-75
2023/06/06 15:01:09;;;;;;;10.73;4.70;;;23.30;99.90;;;;;;4975781;28;20478;-73
2023/06/06 15:03:35;;;;;;;13.73;5.13;;;23.10;99.90;;;;;;4977441;28;20081;-79
2023/06/06 15:06:00;;;;;;;9.68;4.32;;;23.10;99.90;;;;;;4977570;28;20431;-77
2023/06/06 15:08:26;;;;;;;11.18;4.65;;;23.10;99.90;;;;;;4976175;28;20053;-75
2023/06/06 15:10:52;;;;;;;10.65;4.47;;;23.20;99.90;;;;;;4976399;28;20114;-76
2023/06/06 15:13:18;;;;;;;10.05;4.63;;;23.10;99.90;;;;;;4975398;28;20551;-75
2023/06/06 15:15:44;;;;;;;11.57;4.80;;;23.00;99.90;;;;;;4959306;28;20051;-76
2023/06/06 15:18:10;;;;;;;11.52;4.80;;;22.90;99.90;;;;;;4975419;28;20046;-76
2023/06/06 15:20:36;;;;;;;10.55;4.38;;;22.90;99.90;;;;;;4977018;28;20043;-76
2023/06/06 15:23:03;;;;;;;8.40;4.00;;;22.80;99.90;;;;;;4977213;28;20030;-75
2023/06/06 15:25:29;;;;;;;11.98;5.03;;;22.80;99.90;;;;;;4976890;28;20039;-76
2023/06/06 15:27:55;;;;;;;14.75;4.95;;;22.70;99.90;;;;;;4976700;28;20390;-75
2023/06/06 15:30:21;;;;;;;12.00;4.70;;;22.60;99.90;;;;;;4976517;28;20097;-75
2023/06/06 15:32:47;;;;;;;10.98;4.90;;;22.60;99.90;;;;;;4976785;28;20046;-76
2023/06/06 15:35:12;;;;;;;12.50;4.93;;;22.60;99.90;;;;;;4974905;28;20081;-74
2023/06/06 15:37:38;;;;;;;14.63;5.20;;;22.50;99.90;;;;;;4974689;28;20081;-76
2023/06/06 15:40:05;;;;;;;11.85;5.50;;;22.50;99.90;;;;;;4958546;28;20042;-76
2023/06/06 15:42:30;;;;;;;11.25;5.20;;;22.40;99.90;;;;;;4975373;28;20116;-76
2023/06/06 15:44:56;;;;;;;14.15;5.75;;;22.40;99.90;;;;;;4959283;28;20478;-77